createdAt,value
2024-05-09T00:00:29.725Z,13
2024-05-09T00:01:19.556Z,13
2024-05-09T00:02:21.608Z,13
2024-05-09T00:03:20.059Z,12.9
2024-05-09T00:04:22.205Z,12.9
2024-05-09T00:05:21.542Z,12.9
2024-05-09T00:06:17.713Z,12.9
2024-05-09T00:07:19.717Z,12.8
2024-05-09T00:08:18.992Z,12.9
2024-05-09T00:09:22.165Z,12.7
2024-05-09T00:10:25.529Z,12.8
2024-05-09T00:11:17.454Z,12.8
2024-05-09T00:12:16.715Z,12.8
2024-05-09T00:13:16.988Z,12.8
2024-05-09T00:14:16.859Z,12.8
2024-05-09T00:15:17.748Z,12.8
2024-05-09T00:16:17.800Z,12.8
2024-05-09T00:17:18.490Z,12.8
2024-05-09T00:18:16.601Z,12.9
2024-05-09T00:19:16.682Z,12.9
2024-05-09T00:20:23.955Z,12.8
2024-05-09T00:21:17.674Z,12.9
2024-05-09T00:22:16.576Z,12.9
2024-05-09T00:23:17.374Z,12.9
2024-05-09T00:24:16.938Z,12.9
2024-05-09T00:25:17.568Z,12.9
2024-05-09T00:26:16.902Z,12.9
2024-05-09T00:27:17.880Z,12.9
2024-05-09T00:28:17.145Z,12.9
2024-05-09T00:29:17.529Z,12.9
2024-05-09T00:30:24.375Z,12.9
2024-05-09T00:31:17.091Z,12.8
2024-05-09T00:32:17.586Z,12.9
2024-05-09T00:33:17.910Z,12.9
2024-05-09T00:34:17.815Z,12.9
2024-05-09T00:35:17.650Z,12.9
2024-05-09T00:36:17.007Z,12.9
2024-05-09T00:37:17.202Z,12.9
2024-05-09T00:38:17.548Z,12.9
2024-05-09T00:39:16.680Z,12.8
2024-05-09T00:40:26.531Z,12.8
2024-05-09T00:41:19.533Z,12.8
2024-05-09T00:42:17.642Z,12.9
2024-05-09T00:43:17.604Z,12.8
2024-05-09T00:44:18.249Z,12.7
2024-05-09T00:45:18.203Z,12.8
2024-05-09T00:46:16.288Z,12.8
2024-05-09T00:47:16.750Z,12.8
2024-05-09T00:48:19.746Z,12.8
2024-05-09T00:49:16.757Z,12.8
2024-05-09T00:50:22.924Z,12.8
2024-05-09T00:51:16.291Z,12.7
2024-05-09T00:52:16.270Z,12.8
2024-05-09T00:53:18.431Z,12.8
2024-05-09T00:54:17.538Z,12.8
2024-05-09T00:55:16.878Z,12.7
2024-05-09T00:56:17.006Z,12.7
2024-05-09T00:57:17.987Z,12.8
2024-05-09T00:58:17.901Z,12.8
2024-05-09T00:59:17.149Z,12.7
2024-05-09T01:00:26.525Z,12.7
2024-05-09T01:01:16.833Z,12.7
2024-05-09T01:02:18.564Z,12.7
2024-05-09T01:03:18.016Z,12.7
2024-05-09T01:04:16.832Z,12.6
2024-05-09T01:05:17.338Z,12.6
2024-05-09T01:06:18.466Z,12.7
2024-05-09T01:07:16.469Z,12.7
2024-05-09T01:08:16.608Z,12.6
2024-05-09T01:09:16.796Z,12.6
2024-05-09T01:10:24.121Z,12.6
2024-05-09T01:11:16.722Z,12.6
2024-05-09T01:12:18.026Z,12.6
2024-05-09T01:13:17.113Z,12.6
2024-05-09T01:14:18.265Z,12.6
2024-05-09T01:15:16.688Z,12.6
2024-05-09T01:16:17.088Z,12.6
2024-05-09T01:17:18.431Z,12.6
2024-05-09T01:18:17.260Z,12.6
2024-05-09T01:19:17.179Z,12.6
2024-05-09T01:20:23.035Z,12.6
2024-05-09T01:21:17.154Z,12.6
2024-05-09T01:22:18.010Z,12.6
2024-05-09T01:23:18.634Z,12.6
2024-05-09T01:24:18.475Z,12.6
2024-05-09T01:25:17.177Z,12.6
2024-05-09T01:26:16.310Z,12.5
2024-05-09T01:27:16.378Z,12.5
2024-05-09T01:28:16.650Z,12.5
2024-05-09T01:29:16.682Z,12.5
2024-05-09T01:30:24.298Z,12.6
2024-05-09T01:31:17.303Z,12.4
2024-05-09T01:32:17.348Z,12.4
2024-05-09T01:33:16.680Z,12.4
2024-05-09T01:34:17.733Z,12.4
2024-05-09T01:35:17.044Z,12.4
2024-05-09T01:36:17.061Z,12.4
2024-05-09T01:37:17.197Z,12.4
2024-05-09T01:38:17.590Z,12.4
2024-05-09T01:39:16.374Z,12.3
2024-05-09T01:40:22.093Z,12.3
2024-05-09T01:41:17.333Z,12.3
2024-05-09T01:42:16.580Z,12.3
2024-05-09T01:43:16.693Z,12.2
2024-05-09T01:44:16.714Z,12.2
2024-05-09T01:45:17.362Z,12.2
2024-05-09T01:46:17.484Z,12.3
2024-05-09T01:47:16.875Z,12.1
2024-05-09T01:48:16.836Z,12.2
2024-05-09T01:49:16.923Z,12.2
2024-05-09T01:50:22.531Z,12.2
2024-05-09T01:51:17.519Z,12.2
2024-05-09T01:52:16.508Z,12.1
2024-05-09T01:53:16.686Z,12.1
2024-05-09T01:54:18.090Z,12.2
2024-05-09T01:55:17.520Z,12.1
2024-05-09T01:56:16.921Z,12.1
2024-05-09T01:57:16.794Z,12.1
2024-05-09T01:58:16.940Z,12.1
2024-05-09T01:59:18.259Z,12.1
2024-05-09T02:00:26.291Z,12.1
2024-05-09T02:01:17.080Z,12.1
2024-05-09T02:02:18.778Z,12.1
2024-05-09T02:03:17.831Z,12.1
2024-05-09T02:04:16.768Z,12.1
2024-05-09T02:05:17.357Z,12
2024-05-09T02:06:16.243Z,12.1
2024-05-09T02:07:17.463Z,12.1
2024-05-09T02:08:17.030Z,12
2024-05-09T02:09:16.695Z,12
2024-05-09T02:10:23.456Z,12
2024-05-09T02:11:18.272Z,12
2024-05-09T02:12:17.319Z,12
2024-05-09T02:13:17.315Z,12.1
2024-05-09T02:14:15.308Z,12
2024-05-09T02:15:17.296Z,12.1
2024-05-09T02:16:15.508Z,12
2024-05-09T02:17:17.961Z,12
2024-05-09T02:18:18.890Z,12.1
2024-05-09T02:19:16.958Z,12.1
2024-05-09T02:20:26.799Z,12.1
2024-05-09T02:21:16.683Z,12.1
2024-05-09T02:22:16.614Z,12.1
2024-05-09T02:23:17.626Z,12
2024-05-09T02:24:16.783Z,12.1
2024-05-09T02:25:17.540Z,12.1
2024-05-09T02:26:17.605Z,12.1
2024-05-09T02:27:16.642Z,12
2024-05-09T02:28:16.798Z,12
2024-05-09T02:29:16.843Z,12
2024-05-09T02:30:25.862Z,12.1
2024-05-09T02:31:16.555Z,12.1
2024-05-09T02:32:17.810Z,12.1
2024-05-09T02:33:17.265Z,12.1
2024-05-09T02:34:18.274Z,12
2024-05-09T02:35:16.749Z,12
2024-05-09T02:36:16.966Z,12.1
2024-05-09T02:37:17.019Z,12.1
2024-05-09T02:38:17.262Z,12.1
2024-05-09T02:39:18.217Z,12.1
2024-05-09T02:40:25.236Z,12
2024-05-09T02:41:16.930Z,12.1
2024-05-09T02:42:17.983Z,12.1
2024-05-09T02:43:17.100Z,12.1
2024-05-09T02:44:18.296Z,12.1
2024-05-09T02:45:16.697Z,12.1
2024-05-09T02:46:17.028Z,12.1
2024-05-09T02:47:17.322Z,12.1
2024-05-09T02:48:16.509Z,12.1
2024-05-09T02:49:16.446Z,12.1
2024-05-09T02:50:26.592Z,12.1
2024-05-09T02:51:16.759Z,12
2024-05-09T02:52:16.765Z,12
2024-05-09T02:53:17.771Z,12
2024-05-09T02:54:16.978Z,12
2024-05-09T02:55:17.445Z,12
2024-05-09T02:56:16.645Z,12
2024-05-09T02:57:16.589Z,12
2024-05-09T02:58:17.751Z,12
2024-05-09T02:59:16.835Z,11.9
2024-05-09T03:00:22.796Z,12
2024-05-09T03:01:16.369Z,12
2024-05-09T03:02:18.284Z,11.9
2024-05-09T03:03:16.459Z,11.9
2024-05-09T03:04:16.663Z,11.9
2024-05-09T03:05:17.235Z,12
2024-05-09T03:06:18.230Z,12
2024-05-09T03:07:17.846Z,11.9
2024-05-09T03:08:16.221Z,11.9
2024-05-09T03:09:16.545Z,11.9
2024-05-09T03:10:22.295Z,11.9
2024-05-09T03:11:16.427Z,11.9
2024-05-09T03:12:17.559Z,11.9
2024-05-09T03:13:16.678Z,11.9
2024-05-09T03:14:17.792Z,11.9
2024-05-09T03:15:17.302Z,11.8
2024-05-09T03:16:16.476Z,11.9
2024-05-09T03:17:16.737Z,11.8
2024-05-09T03:18:17.842Z,11.8
2024-05-09T03:19:17.991Z,11.9
2024-05-09T03:20:23.780Z,11.9
2024-05-09T03:21:16.692Z,11.8
2024-05-09T03:22:17.888Z,11.8
2024-05-09T03:23:18.022Z,11.8
2024-05-09T03:24:18.082Z,11.9
2024-05-09T03:25:17.819Z,11.9
2024-05-09T03:26:17.056Z,11.9
2024-05-09T03:27:17.226Z,11.9
2024-05-09T03:28:18.140Z,11.9
2024-05-09T03:29:16.566Z,11.9
2024-05-09T03:30:29.297Z,11.9
2024-05-09T03:31:17.113Z,11.9
2024-05-09T03:32:17.147Z,11.9
2024-05-09T03:33:18.642Z,11.9
2024-05-09T03:34:17.324Z,11.9
2024-05-09T03:35:16.911Z,11.9
2024-05-09T03:36:16.991Z,11.9
2024-05-09T03:37:17.058Z,11.9
2024-05-09T03:38:18.489Z,11.9
2024-05-09T03:39:16.456Z,11.8
2024-05-09T03:40:23.407Z,11.9
2024-05-09T03:41:16.446Z,11.9
2024-05-09T03:42:16.641Z,12
2024-05-09T03:43:16.904Z,12
2024-05-09T03:44:17.223Z,12
2024-05-09T03:45:16.889Z,11.9
2024-05-09T03:46:16.905Z,11.9
2024-05-09T03:47:17.883Z,11.9
2024-05-09T03:49:17.266Z,11.9
2024-05-09T03:50:25.267Z,11.9
2024-05-09T03:51:16.977Z,11.9
2024-05-09T03:52:17.204Z,11.9
2024-05-09T03:53:17.288Z,11.9
2024-05-09T03:54:16.673Z,11.9
2024-05-09T03:55:18.100Z,11.9
2024-05-09T03:56:17.384Z,11.9
2024-05-09T03:57:16.732Z,12
2024-05-09T03:58:16.884Z,12
2024-05-09T03:59:16.926Z,12
2024-05-09T04:00:22.633Z,11.9
2024-05-09T04:01:16.524Z,11.9
2024-05-09T04:02:18.205Z,12
2024-05-09T04:03:16.917Z,12
2024-05-09T04:04:16.725Z,12
2024-05-09T04:05:18.229Z,12
2024-05-09T04:06:16.309Z,12
2024-05-09T04:07:19.763Z,12
2024-05-09T04:08:17.864Z,12
2024-05-09T04:09:16.926Z,12
2024-05-09T04:10:27.668Z,12
2024-05-09T04:11:16.899Z,12
2024-05-09T04:12:17.199Z,12.1
2024-05-09T04:13:54.195Z,12.1
2024-05-09T04:14:17.425Z,12.1
2024-05-09T04:15:17.931Z,12.2
2024-05-09T04:16:16.896Z,12.2
2024-05-09T04:17:16.878Z,12.2
2024-05-09T04:18:18.114Z,12.1
2024-05-09T04:19:17.154Z,12.2
2024-05-09T04:20:29.119Z,12.2
2024-05-09T04:21:16.850Z,12.3
2024-05-09T04:22:16.791Z,12.3
2024-05-09T04:23:16.937Z,12.3
2024-05-09T04:24:17.036Z,12.3
2024-05-09T04:25:18.925Z,12.4
2024-05-09T04:26:17.971Z,12.3
2024-05-09T04:27:17.038Z,12.4
2024-05-09T04:28:17.320Z,12.4
2024-05-09T04:29:17.459Z,12.4
2024-05-09T04:30:25.490Z,12.5
2024-05-09T04:31:16.438Z,12.5
2024-05-09T04:32:16.608Z,12.5
2024-05-09T04:33:16.554Z,12.5
2024-05-09T04:34:18.721Z,12.4
2024-05-09T04:35:21.921Z,12.5
2024-05-09T04:36:17.728Z,12.5
2024-05-09T04:37:47.955Z,12.5
2024-05-09T04:38:17.130Z,12.5
2024-05-09T04:39:17.251Z,12.5
2024-05-09T04:40:24.458Z,12.5
2024-05-09T04:41:17.826Z,12.5
2024-05-09T04:42:17.822Z,12.5
2024-05-09T04:43:16.995Z,12.5
2024-05-09T04:44:18.137Z,12.6
2024-05-09T04:45:17.406Z,12.5
2024-05-09T04:46:16.633Z,12.5
2024-05-09T04:47:16.531Z,12.5
2024-05-09T04:48:17.825Z,12.5
2024-05-09T04:49:16.709Z,12.5
2024-05-09T04:50:25.469Z,12.5
2024-05-09T04:51:15.631Z,12.5
2024-05-09T04:52:16.753Z,12.6
2024-05-09T04:53:17.353Z,12.4
2024-05-09T04:54:26.432Z,12.5
2024-05-09T04:55:17.384Z,12.5
2024-05-09T04:56:16.656Z,12.5
2024-05-09T04:57:17.644Z,12.6
2024-05-09T04:58:17.719Z,12.4
2024-05-09T04:59:16.857Z,12.6
2024-05-09T05:00:21.929Z,12.6
2024-05-09T05:01:16.387Z,12.6
2024-05-09T05:02:17.381Z,12.6
2024-05-09T05:03:17.818Z,12.6
2024-05-09T05:04:16.909Z,12.6
2024-05-09T05:05:17.011Z,12.7
2024-05-09T05:06:17.908Z,12.6
2024-05-09T05:07:16.331Z,12.7
2024-05-09T05:08:17.515Z,12.7
2024-05-09T05:09:18.247Z,12.7
2024-05-09T05:10:21.643Z,12.8
2024-05-09T05:11:20.835Z,12.8
2024-05-09T05:12:52.772Z,12.8
2024-05-09T05:13:18.941Z,12.9
2024-05-09T05:14:17.952Z,12.7
2024-05-09T05:15:17.162Z,12.9
2024-05-09T05:16:17.170Z,12.9
2024-05-09T05:17:18.211Z,12.9
2024-05-09T05:18:17.193Z,12.9
2024-05-09T05:19:17.796Z,13
2024-05-09T05:20:26.964Z,13
2024-05-09T05:21:17.334Z,13
2024-05-09T05:22:17.339Z,12.9
2024-05-09T05:23:16.772Z,13
2024-05-09T05:24:16.390Z,13
2024-05-09T05:25:16.575Z,13
2024-05-09T05:26:16.636Z,13
2024-05-09T05:27:16.828Z,12.9
2024-05-09T05:28:16.888Z,12.9
2024-05-09T05:29:20.258Z,12.9
2024-05-09T05:30:24.827Z,13
2024-05-09T05:31:17.045Z,12.9
2024-05-09T05:32:17.427Z,12.9
2024-05-09T05:33:16.681Z,13
2024-05-09T05:34:16.479Z,13
2024-05-09T05:35:16.867Z,13
2024-05-09T05:36:17.149Z,13.1
2024-05-09T05:37:17.241Z,13.1
2024-05-09T05:38:17.132Z,13
2024-05-09T05:39:16.380Z,13.1
2024-05-09T05:40:27.561Z,13.2
2024-05-09T05:41:16.678Z,13.2
2024-05-09T05:42:16.766Z,13.3
2024-05-09T05:43:16.852Z,13.3
2024-05-09T05:44:54.777Z,13.3
2024-05-09T05:45:18.211Z,13.4
2024-05-09T05:46:17.354Z,13.2
2024-05-09T05:47:16.484Z,13.5
2024-05-09T05:48:17.963Z,13.6
2024-05-09T05:49:16.677Z,13.6
2024-05-09T05:50:24.670Z,13.6
2024-05-09T05:51:16.889Z,13.7
2024-05-09T05:52:17.651Z,13.7
2024-05-09T05:53:17.032Z,13.8
2024-05-09T05:54:16.985Z,13.6
2024-05-09T05:55:22.150Z,14
2024-05-09T05:56:49.375Z,13.7
2024-05-09T05:57:38.454Z,13.7
2024-05-09T05:58:29.448Z,13.8
2024-05-09T05:59:46.415Z,13.6
2024-05-09T06:00:49.471Z,14
2024-05-09T06:01:44.714Z,13.7
2024-05-09T06:02:17.176Z,14.1
2024-05-09T06:03:20.380Z,13.8
2024-05-09T06:04:16.310Z,13.6
2024-05-09T06:05:47.499Z,14
2024-05-09T06:06:26.607Z,13.7
2024-05-09T06:07:20.910Z,14.6
2024-05-09T06:08:17.016Z,15.2
2024-05-09T06:09:17.005Z,15.2
2024-05-09T06:10:21.651Z,15.3
2024-05-09T06:11:16.417Z,15.3
2024-05-09T06:12:17.374Z,14.6
2024-05-09T06:13:16.277Z,15.4
2024-05-09T06:14:16.623Z,15.5
2024-05-09T06:15:16.766Z,15.6
2024-05-09T06:16:16.685Z,15.7
2024-05-09T06:17:16.802Z,15.7
2024-05-09T06:18:16.716Z,15.7
2024-05-09T06:19:16.787Z,15.6
2024-05-09T06:20:23.907Z,15.6
2024-05-09T06:21:17.534Z,15.6
2024-05-09T06:22:17.113Z,15.6
2024-05-09T06:23:16.315Z,15.7
2024-05-09T06:24:17.480Z,15.8
2024-05-09T06:25:16.567Z,15.9
2024-05-09T06:26:16.689Z,16.3
2024-05-09T06:27:16.653Z,17.2
2024-05-09T06:28:17.782Z,15.7
2024-05-09T06:29:16.935Z,19.2
2024-05-09T06:30:25.808Z,20
2024-05-09T06:31:16.244Z,20.3
2024-05-09T06:32:16.396Z,20.5
2024-05-09T06:33:16.890Z,20.5
2024-05-09T06:34:16.487Z,20.7
2024-05-09T06:35:16.297Z,20.8
2024-05-09T06:36:17.441Z,20.3
2024-05-09T06:37:16.547Z,21.1
2024-05-09T06:38:16.592Z,21
2024-05-09T06:39:16.617Z,21
2024-05-09T06:40:21.454Z,20.6
2024-05-09T06:41:16.200Z,20
2024-05-09T06:42:16.403Z,19.7
2024-05-09T06:43:18.518Z,19.3
2024-05-09T06:44:17.595Z,21
2024-05-09T06:45:16.702Z,18.3
2024-05-09T06:46:16.731Z,18
2024-05-09T06:47:16.833Z,17.7
2024-05-09T06:48:16.873Z,17.4
2024-05-09T06:49:16.962Z,17.1
2024-05-09T06:50:23.708Z,16.9
2024-05-09T06:51:18.051Z,16.8
2024-05-09T06:52:18.013Z,17.7
2024-05-09T06:53:17.415Z,17
2024-05-09T06:54:17.235Z,17.2
2024-05-09T06:55:17.390Z,17.2
2024-05-09T06:56:16.529Z,17.1
2024-05-09T06:57:17.408Z,17.1
2024-05-09T06:58:17.535Z,17.2
2024-05-09T06:59:16.623Z,17.2
2024-05-09T07:00:26.849Z,17.2
2024-05-09T07:01:17.109Z,17
2024-05-09T07:02:17.250Z,17
2024-05-09T07:03:18.746Z,16.9
2024-05-09T07:04:17.237Z,16.8
2024-05-09T07:05:17.431Z,16.8
2024-05-09T07:06:16.501Z,16.8
2024-05-09T07:07:16.470Z,16.8
2024-05-09T07:08:16.792Z,16.9
2024-05-09T07:09:16.911Z,16.7
2024-05-09T07:10:22.061Z,16.7
2024-05-09T07:11:16.414Z,16.7
2024-05-09T07:12:16.481Z,16.7
2024-05-09T07:13:17.547Z,16.6
2024-05-09T07:14:16.743Z,16.6
2024-05-09T07:15:16.967Z,16.6
2024-05-09T07:16:18.238Z,16.7
2024-05-09T07:17:17.293Z,16.6
2024-05-09T07:18:18.029Z,16.6
2024-05-09T07:19:17.631Z,16.6
2024-05-09T07:20:23.518Z,16.7
2024-05-09T07:21:16.734Z,16.7
2024-05-09T07:22:16.721Z,16.8
2024-05-09T07:23:16.808Z,16.9
2024-05-09T07:24:17.738Z,16.6
2024-05-09T07:25:16.968Z,16.9
2024-05-09T07:26:17.175Z,17
2024-05-09T07:27:17.063Z,17.1
2024-05-09T07:28:17.898Z,17.2
2024-05-09T07:29:18.039Z,17.2
2024-05-09T07:30:23.772Z,17.3
2024-05-09T07:31:18.255Z,17.2
2024-05-09T07:32:16.710Z,17.1
2024-05-09T07:33:16.867Z,17.1
2024-05-09T07:34:17.740Z,17.3
2024-05-09T07:35:18.266Z,17.5
2024-05-09T07:36:18.256Z,17.7
2024-05-09T07:37:16.192Z,17.8
2024-05-09T07:38:17.453Z,17.9
2024-05-09T07:39:16.435Z,18
2024-05-09T07:40:28.204Z,17.5
2024-05-09T07:41:16.695Z,18.3
2024-05-09T07:42:16.547Z,18.7
2024-05-09T07:43:16.771Z,19.2
2024-05-09T07:44:16.947Z,19.5
2024-05-09T07:47:14.216Z,19.7
2024-05-09T07:48:28.977Z,19.9
2024-05-09T07:50:56.165Z,20.3
2024-05-09T07:53:30.028Z,20
2024-05-09T07:53:37.909Z,19.5
2024-05-09T07:54:17.091Z,19
2024-05-09T07:55:17.406Z,18.7
2024-05-09T07:56:18.281Z,20.1
2024-05-09T07:57:17.400Z,18.4
2024-05-09T07:58:18.185Z,18.5
2024-05-09T07:59:17.279Z,18.5
2024-05-09T08:00:23.710Z,18.6
2024-05-09T08:01:16.354Z,18.6
2024-05-09T08:02:17.341Z,18.6
2024-05-09T08:03:17.336Z,18.7
2024-05-09T08:04:17.752Z,18.5
2024-05-09T08:05:17.243Z,18.7
2024-05-09T08:06:17.300Z,18.8
2024-05-09T08:07:17.322Z,19
2024-05-09T08:08:20.383Z,19.1
2024-05-09T08:09:20.653Z,19.2
2024-05-09T08:11:17.366Z,19.2
2024-05-09T08:12:18.375Z,19
2024-05-09T08:13:16.554Z,19.1
2024-05-09T08:14:16.579Z,19.1
2024-05-09T08:15:16.839Z,19
2024-05-09T08:16:16.942Z,19.1
2024-05-09T08:17:17.051Z,19.1
2024-05-09T08:18:17.352Z,19
2024-05-09T08:19:17.162Z,19
2024-05-09T08:20:26.880Z,19
2024-05-09T08:21:16.550Z,19.1
2024-05-09T08:22:17.635Z,19.2
2024-05-09T08:23:17.772Z,19.3
2024-05-09T08:24:16.611Z,19.3
2024-05-09T08:25:18.123Z,19.3
2024-05-09T08:26:17.122Z,19.2
2024-05-09T08:27:17.323Z,19.2
2024-05-09T08:28:17.572Z,19.3
2024-05-09T08:29:16.194Z,19.2
2024-05-09T08:30:24.624Z,19.1
2024-05-09T08:31:17.140Z,19
2024-05-09T08:32:17.419Z,18.7
2024-05-09T08:33:17.684Z,18.4
2024-05-09T08:34:16.783Z,18.2
2024-05-09T08:35:16.932Z,18
2024-05-09T08:36:18.110Z,19
2024-05-09T08:37:22.366Z,17.9
2024-05-09T08:38:17.441Z,17.9
2024-05-09T08:39:17.588Z,17.9
2024-05-09T08:40:24.137Z,17.9
2024-05-09T08:41:17.617Z,18
2024-05-09T08:42:16.603Z,17.8
2024-05-09T08:43:16.902Z,17.9
2024-05-09T08:44:18.876Z,17.9
2024-05-09T08:45:17.132Z,18.4
2024-05-09T08:46:16.420Z,18.8
2024-05-09T08:47:16.338Z,19
2024-05-09T08:48:17.601Z,19.1
2024-05-09T08:49:17.555Z,19.3
2024-05-09T08:50:28.760Z,19.4
2024-05-09T08:51:16.740Z,19.5
2024-05-09T08:52:19.818Z,19
2024-05-09T08:53:16.870Z,19.6
2024-05-09T08:54:16.984Z,19.9
2024-05-09T08:55:17.092Z,20.2
2024-05-09T08:56:20.101Z,20.4
2024-05-09T08:57:19.167Z,20.4
2024-05-09T08:58:17.516Z,20.3
2024-05-09T08:59:21.333Z,20.1
2024-05-09T09:00:29.064Z,20.2
2024-05-09T09:01:17.729Z,20.2
2024-05-09T09:02:17.275Z,20.3
2024-05-09T09:03:17.428Z,20.2
2024-05-09T09:04:18.547Z,20.1
2024-05-09T09:05:17.021Z,20
2024-05-09T09:06:16.737Z,19.9
2024-05-09T09:07:18.757Z,20
2024-05-09T09:08:22.708Z,20.2
2024-05-09T09:09:16.707Z,20.2
2024-05-09T09:10:28.893Z,20.2
2024-05-09T09:11:19.047Z,20.2
2024-05-09T09:12:19.001Z,20
2024-05-09T09:13:19.214Z,20
2024-05-09T09:14:19.076Z,20.1
2024-05-09T09:15:18.165Z,20.1
2024-05-09T09:16:18.531Z,20.2
2024-05-09T09:17:18.535Z,19.9
2024-05-09T09:18:19.108Z,19.9
2024-05-09T09:19:18.682Z,19.9
2024-05-09T09:20:26.201Z,19.8
2024-05-09T09:21:19.173Z,19.7
2024-05-09T09:22:18.189Z,19.8
2024-05-09T09:23:18.147Z,19.8
2024-05-09T09:24:19.248Z,19.9
2024-05-09T09:25:19.470Z,19.8
2024-05-09T09:26:18.471Z,19.8
2024-05-09T09:27:17.461Z,19.8
2024-05-09T09:28:18.591Z,19.8
2024-05-09T09:29:17.538Z,19.7
2024-05-09T09:30:31.503Z,19.7
2024-05-09T09:31:18.084Z,19.7
2024-05-09T09:32:19.162Z,19.8
2024-05-09T09:33:19.608Z,19.9
2024-05-09T09:34:18.485Z,20
2024-05-09T09:35:17.403Z,20.3
2024-05-09T09:36:17.350Z,20.4
2024-05-09T09:37:17.584Z,20.4
2024-05-09T09:38:18.556Z,20.3
2024-05-09T09:39:18.663Z,20.2
2024-05-09T09:40:22.309Z,20.3
2024-05-09T09:41:46.302Z,20.4
2024-05-09T09:42:18.340Z,20.2
2024-05-09T09:43:45.276Z,20.2
2024-05-09T09:44:18.384Z,20
2024-05-09T09:45:17.606Z,20
2024-05-09T09:46:18.548Z,20.2
2024-05-09T09:47:18.605Z,20.3
2024-05-09T09:48:17.609Z,20.6
2024-05-09T09:49:18.605Z,20
2024-05-09T09:50:27.046Z,20.9
2024-05-09T09:51:19.063Z,21
2024-05-09T09:52:19.255Z,21
2024-05-09T09:53:18.093Z,21
2024-05-09T09:54:18.984Z,21
2024-05-09T09:55:19.369Z,20.9
2024-05-09T09:56:18.462Z,20.8
2024-05-09T09:57:18.499Z,21
2024-05-09T09:58:17.754Z,20.7
2024-05-09T09:59:18.440Z,20.7
2024-05-09T10:00:24.499Z,20.7
2024-05-09T10:01:17.652Z,20.7
2024-05-09T10:02:18.865Z,20.7
2024-05-09T10:03:18.789Z,20.8
2024-05-09T10:04:19.015Z,21
2024-05-09T10:05:20.305Z,20.7
2024-05-09T10:06:19.247Z,21
2024-05-09T10:07:18.074Z,21
2024-05-09T10:08:19.398Z,21.2
2024-05-09T10:09:18.488Z,21.3
2024-05-09T10:10:26.917Z,21.3
2024-05-09T10:11:17.969Z,21.2
2024-05-09T10:12:19.005Z,21
2024-05-09T10:13:19.071Z,21.2
2024-05-09T10:14:19.421Z,20.8
2024-05-09T10:15:18.483Z,20.9
2024-05-09T10:16:19.142Z,21
2024-05-09T10:17:19.302Z,21
2024-05-09T10:18:22.439Z,21
2024-05-09T10:19:18.539Z,21.2
2024-05-09T10:20:22.096Z,21.4
2024-05-09T10:21:21.832Z,21
2024-05-09T10:22:18.777Z,21.4
2024-05-09T10:23:18.808Z,21.5
2024-05-09T10:24:19.912Z,21.5
2024-05-09T10:25:22.380Z,21.5
2024-05-09T10:26:19.440Z,21.6
2024-05-09T10:27:22.559Z,21.6
2024-05-09T10:28:24.999Z,21.7
2024-05-09T10:29:20.996Z,21.5
2024-05-09T10:31:19.466Z,21.3
2024-05-09T10:32:22.532Z,21.1
2024-05-09T10:33:20.672Z,21.2
2024-05-09T10:34:18.589Z,21.3
2024-05-09T10:35:18.691Z,21.2
2024-05-09T10:36:17.848Z,21.1
2024-05-09T10:37:21.900Z,21.1
2024-05-09T10:38:18.774Z,21.2
2024-05-09T10:39:22.964Z,21.4
2024-05-09T10:40:28.947Z,21.5
2024-05-09T10:41:19.200Z,21.6
2024-05-09T10:42:22.412Z,21.8
2024-05-09T10:43:17.497Z,21.8
2024-05-09T10:44:22.977Z,21.8
2024-05-09T10:45:19.199Z,21.5
2024-05-09T10:46:19.914Z,21.8
2024-05-09T10:47:18.273Z,21.7
2024-05-09T10:48:17.478Z,21.6
2024-05-09T10:49:18.717Z,21.6
2024-05-09T10:50:25.541Z,21.7
2024-05-09T10:51:19.125Z,21.8
2024-05-09T10:52:19.707Z,21.7
2024-05-09T10:53:20.510Z,21.6
2024-05-09T10:54:17.601Z,21.7
2024-05-09T10:55:18.007Z,21.9
2024-05-09T10:56:19.244Z,22
2024-05-09T10:57:18.655Z,22
2024-05-09T10:58:17.808Z,22
2024-05-09T10:59:18.848Z,22
2024-05-09T11:00:27.419Z,22.2
2024-05-09T11:01:19.636Z,22
2024-05-09T11:02:18.653Z,22
2024-05-09T11:03:18.599Z,22
2024-05-09T11:04:19.695Z,22.1
2024-05-09T11:05:19.295Z,22
2024-05-09T11:06:19.091Z,22.1
2024-05-09T11:07:19.423Z,22.2
2024-05-09T11:08:18.271Z,22.3
2024-05-09T11:09:17.454Z,22.1
2024-05-09T11:11:18.041Z,22.3
2024-05-09T11:12:20.642Z,22.3
2024-05-09T11:13:18.409Z,22.5
2024-05-09T11:14:17.414Z,22.4
2024-05-09T11:15:18.603Z,22.4
2024-05-09T11:16:18.911Z,22.3
2024-05-09T11:17:17.620Z,22.3
2024-05-09T11:18:19.787Z,22.2
2024-05-09T11:19:18.182Z,22.3
2024-05-09T11:20:26.622Z,22.4
2024-05-09T11:21:17.900Z,22.4
2024-05-09T11:22:19.021Z,22.5
2024-05-09T11:23:18.965Z,22.7
2024-05-09T11:24:18.194Z,22.9
2024-05-09T11:25:17.604Z,22.4
2024-05-09T11:26:18.839Z,22.7
2024-05-09T11:27:19.098Z,22.6
2024-05-09T11:28:17.453Z,22.6
2024-05-09T11:29:19.753Z,22.4
2024-05-09T11:30:24.346Z,22.5
2024-05-09T11:31:19.245Z,22.5
2024-05-09T11:32:18.105Z,22.6
2024-05-09T11:33:19.333Z,22.6
2024-05-09T11:34:19.138Z,22.9
2024-05-09T11:35:19.420Z,22.8
2024-05-09T11:36:18.734Z,22.6
2024-05-09T11:37:18.085Z,22.4
2024-05-09T11:38:19.019Z,22.3
2024-05-09T11:39:19.239Z,22.2
2024-05-09T11:40:25.358Z,22.2
2024-05-09T11:41:19.122Z,22.6
2024-05-09T11:42:17.765Z,22.2
2024-05-09T11:43:19.181Z,22.2
2024-05-09T11:44:18.226Z,22.2
2024-05-09T11:45:18.653Z,22.1
2024-05-09T11:46:18.992Z,21.9
2024-05-09T11:47:18.986Z,21.9
2024-05-09T11:48:21.106Z,21.9
2024-05-09T11:49:18.039Z,22.2
2024-05-09T11:50:26.963Z,22
2024-05-09T11:51:18.742Z,22.2
2024-05-09T11:52:18.937Z,22.3
2024-05-09T11:53:18.132Z,22.3
2024-05-09T11:54:18.453Z,22.3
2024-05-09T11:55:28.064Z,22.3
2024-05-09T11:56:17.837Z,22.4
2024-05-09T11:57:19.443Z,22.3
2024-05-09T11:58:18.950Z,22.5
2024-05-09T11:59:19.027Z,22.5
2024-05-09T12:00:28.925Z,22.5
2024-05-09T12:01:18.960Z,22.3
2024-05-09T12:02:19.181Z,22.3
2024-05-09T12:03:19.487Z,22.2
2024-05-09T12:04:17.875Z,22.3
2024-05-09T12:05:18.540Z,22.5
2024-05-09T12:06:17.618Z,22.6
2024-05-09T12:07:18.840Z,22.8
2024-05-09T12:08:19.184Z,22.8
2024-05-09T12:09:18.397Z,22.9
2024-05-09T12:10:22.477Z,22.7
2024-05-09T12:11:18.520Z,22.6
2024-05-09T12:12:18.580Z,22.4
2024-05-09T12:13:18.911Z,22.8
2024-05-09T12:14:19.248Z,22.2
2024-05-09T12:15:17.935Z,22.3
2024-05-09T12:16:18.207Z,22.2
2024-05-09T12:17:19.509Z,22.3
2024-05-09T12:18:18.473Z,22.4
2024-05-09T12:19:18.807Z,22.4
2024-05-09T12:20:28.304Z,22.4
2024-05-09T12:21:18.214Z,22.2
2024-05-09T12:22:19.289Z,22.7
2024-05-09T12:23:17.589Z,22.8
2024-05-09T12:24:18.666Z,22.9
2024-05-09T12:25:19.375Z,23
2024-05-09T12:26:18.395Z,23
2024-05-09T12:27:18.840Z,23.1
2024-05-09T12:28:18.325Z,22.9
2024-05-09T12:29:19.270Z,22.9
2024-05-09T12:30:32.086Z,22.9
2024-05-09T12:31:19.215Z,22.9
2024-05-09T12:32:19.323Z,23
2024-05-09T12:33:17.712Z,23.2
2024-05-09T12:34:18.992Z,23.1
2024-05-09T12:35:19.538Z,23
2024-05-09T12:36:18.724Z,22.8
2024-05-09T12:37:17.973Z,23
2024-05-09T12:38:17.821Z,22.8
2024-05-09T12:39:19.065Z,22.9
2024-05-09T12:40:30.642Z,22.9
2024-05-09T12:41:19.177Z,22.9
2024-05-09T12:42:27.121Z,23
2024-05-09T12:43:17.691Z,22.8
2024-05-09T12:44:18.729Z,22.8
2024-05-09T12:45:18.399Z,22.9
2024-05-09T12:46:17.494Z,23.1
2024-05-09T12:47:18.759Z,23.2
2024-05-09T12:48:19.124Z,23.1
2024-05-09T12:49:20.092Z,22.9
2024-05-09T12:51:18.900Z,23
2024-05-09T12:52:18.487Z,22.9
2024-05-09T12:53:18.594Z,23.1
2024-05-09T12:54:17.822Z,22.7
2024-05-09T12:55:18.459Z,22.6
2024-05-09T12:56:18.646Z,22.6
2024-05-09T12:57:18.711Z,22.6
2024-05-09T12:58:19.406Z,22.5
2024-05-09T12:59:18.206Z,22.5
2024-05-09T13:00:24.099Z,22.6
2024-05-09T13:01:17.373Z,22.6
2024-05-09T13:02:19.008Z,23.1
2024-05-09T13:03:19.247Z,23.1
2024-05-09T13:04:19.576Z,23
2024-05-09T13:05:18.051Z,23.1
2024-05-09T13:06:17.746Z,23.2
2024-05-09T13:07:19.058Z,23.2
2024-05-09T13:08:19.168Z,23.2
2024-05-09T13:09:19.401Z,23
2024-05-09T13:10:25.641Z,23
2024-05-09T13:11:18.248Z,23
2024-05-09T13:12:20.107Z,23.1
2024-05-09T13:13:18.607Z,23.1
2024-05-09T13:14:17.703Z,23.2
2024-05-09T13:15:18.221Z,23.2
2024-05-09T13:16:18.837Z,23.2
2024-05-09T13:17:18.965Z,23.1
2024-05-09T13:18:19.098Z,23.3
2024-05-09T13:19:18.175Z,23.3
2024-05-09T13:20:26.252Z,23.3
2024-05-09T13:21:18.630Z,23.3
2024-05-09T13:22:17.717Z,23.3
2024-05-09T13:23:18.901Z,23.3
2024-05-09T13:24:19.066Z,23.3
2024-05-09T13:25:17.854Z,23.3
2024-05-09T13:26:17.896Z,23
2024-05-09T13:27:18.250Z,22.9
2024-05-09T13:28:18.813Z,22.9
2024-05-09T13:29:18.570Z,22.7
2024-05-09T13:30:29.661Z,22.7
2024-05-09T13:31:38.269Z,22.6
2024-05-09T13:32:24.477Z,22.4
2024-05-09T13:33:36.491Z,22.9
2024-05-09T13:34:17.497Z,22.4
2024-05-09T13:35:18.171Z,22.6
2024-05-09T13:36:18.524Z,22.6